Time;durP1;ratioP1;P1;durP2;ratioP2;P2;SDS_P1;SDS_P2;PMS_P1;PMS_P2;Temp;Humidity;BMP_temperature;BMP_pressure;BME280_temperature;BME280_humidity;BME280_pressure;Samples;Min_cycle;Max_cycle;Signal;HPM_P1;HPM_P2
2023/05/20 00:02:00;;;;;;;;;;;;;;;;;;2220158;58;1560;-24
2023/05/20 00:04:30;;;;;;;;;;;;;;;;;;2203609;66;1932;-24
2023/05/20 00:07:01;;;;;;;;;;;;;;;;;;2220391;66;1240;-25
2023/05/20 00:09:31;;;;;;;;;;;;;;;;;;2220780;66;1464;-22
2023/05/20 00:12:02;;;;;;;;;;;;;;;;;;2219885;66;1674;-22
2023/05/20 00:14:32;;;;;;;;;;;;;;;;;;2204116;66;1162;-22
2023/05/20 00:17:02;;;;;;;;;;;;;;;;;;2202260;66;1847;-22
2023/05/20 00:19:32;;;;;;;;;;;;;;;;;;2220774;66;1608;-23
2023/05/20 00:22:02;;;;;;;;;;;;;;;;;;2220617;66;1260;-22
2023/05/20 00:24:33;;;;;;;;;;;;;;;;;;2204524;66;2032;-22
2023/05/20 00:27:03;;;;;;;;;;;;;;;;;;2221087;59;1690;-22
2023/05/20 00:29:33;;;;;;;;;;;;;;;;;;2219464;66;1267;-22
2023/05/20 00:32:04;;;;;;;;;;;;;;;;;;2204433;66;2004;-22
2023/05/20 00:34:34;;;;;;;;;;;;;;;;;;2220383;66;1591;-22
2023/05/20 00:37:04;;;;;;;;;;;;;;;;;;2204785;59;1395;-22
2023/05/20 00:39:35;;;;;;;;;;;;;;;;;;2220583;58;1216;-22
2023/05/20 00:42:05;;;;;;;;;;;;;;;;;;2203910;66;1716;-24
2023/05/20 00:44:41;;;;;;;;;;;;;;;;;;2219293;59;1935;-22
2023/05/20 00:47:12;;;;;;;;;;;;;;;;;;2219661;58;2244;-22
2023/05/20 00:49:42;;;;;;;;;;;;;;;;;;2220285;58;1973;-22
2023/05/20 00:52:13;;;;;;;;;;;;;;;;;;2205076;59;1459;-23
2023/05/20 00:54:43;;;;;;;;;;;;;;;;;;2220454;66;1686;-22
2023/05/20 00:57:14;;;;;;;;;;;;;;;;;;2220882;66;1549;-22
2023/05/20 00:59:45;;;;;;;;;;;;;;;;;;2220991;58;2413;-22
2023/05/20 01:02:15;;;;;;;;;;;;;;;;;;2220403;58;1759;-22
2023/05/20 01:04:46;;;;;;;;;;;;;;;;;;2220725;66;2000;-22
2023/05/20 01:07:16;;;;;;;;;;;;;;;;;;2219704;66;1247;-22
2023/05/20 01:09:47;;;;;;;;;;;;;;;;;;2219912;66;1366;-22
2023/05/20 01:12:21;;;;;;;;;;;;;;;;;;2205813;59;1588;-22
2023/05/20 01:15:01;;;;;;;;;;;;;;;;;;2221440;58;1350;-22
2023/05/20 01:17:31;;;;;;;;;;;;;;;;;;2220231;66;1531;-22
2023/05/20 01:20:04;;;;;;;;;;;;;;;;;;2220553;66;1292;-22
2023/05/20 01:22:36;;;;;;;;;;;;;;;;;;2220466;66;1936;-22
2023/05/20 01:25:06;;;;;;;;;;;;;;;;;;2221301;66;1857;-22
2023/05/20 01:27:36;;;;;;;;;;;;;;;;;;2220583;66;1135;-22
2023/05/20 01:30:07;;;;;;;;;;;;;;;;;;2220816;66;1740;-22
2023/05/20 01:32:39;;;;;;;;;;;;;;;;;;2221219;66;1258;-22
2023/05/20 01:35:10;;;;;;;;;;;;;;;;;;2204664;58;1798;-22
2023/05/20 01:37:41;;;;;;;;;;;;;;;;;;2220405;58;1717;-23
2023/05/20 01:40:14;;;;;;;;;;;;;;;;;;2203128;66;1340;-22
2023/05/20 01:42:45;;;;;;;;;;;;;;;;;;2220410;66;1971;-22
2023/05/20 01:45:15;;;;;;;;;;;;;;;;;;2220368;66;1637;-22
2023/05/20 01:47:45;;;;;;;;;;;;;;;;;;2220380;59;2065;-22
2023/05/20 01:50:16;;;;;;;;;;;;;;;;;;2219859;58;1682;-22
2023/05/20 01:52:46;;;;;;;;;;;;;;;;;;2220048;58;1558;-22
2023/05/20 01:55:16;;;;;;;;;;;;;;;;;;2219746;58;1212;-22
2023/05/20 01:57:46;;;;;;;;;;;;;;;;;;2221067;58;2282;-22
2023/05/20 02:00:17;;;;;;;;;;;;;;;;;;2204126;58;1560;-22
2023/05/20 02:02:47;;;;;;;;;;;;;;;;;;2219518;58;1939;-22
2023/05/20 02:05:17;;;;;;;;;;;;;;;;;;2220191;59;1493;-22
2023/05/20 02:07:47;;;;;;;;;;;;;;;;;;2204690;66;1975;-22
2023/05/20 02:10:17;;;;;;;;;;;;;;;;;;2219728;66;1116;-22
2023/05/20 02:12:48;;;;;;;;;;;;;;;;;;2220650;66;1202;-22
2023/05/20 02:15:18;;;;;;;;;;;;;;;;;;2220445;58;1319;-22
2023/05/20 02:17:48;;;;;;;;;;;;;;;;;;2203108;66;1237;-22
2023/05/20 02:20:18;;;;;;;;;;;;;;;;;;2219813;66;1215;-22
2023/05/20 02:22:48;;;;;;;;;;;;;;;;;;2220327;66;1935;-22
2023/05/20 02:25:19;;;;;;;;;;;;;;;;;;2219827;66;1651;-22
2023/05/20 02:27:49;;;;;;;;;;;;;;;;;;2220168;66;1664;-22
2023/05/20 02:30:19;;;;;;;;;;;;;;;;;;2219227;66;1575;-22
2023/05/20 02:32:52;;;;;;;;;;;;;;;;;;2221086;66;1165;-22
2023/05/20 02:35:23;;;;;;;;;;;;;;;;;;2219139;58;1268;-22
2023/05/20 02:37:53;;;;;;;;;;;;;;;;;;2219539;58;1708;-22
2023/05/20 02:40:23;;;;;;;;;;;;;;;;;;2219573;60;1247;-22
2023/05/20 02:42:53;;;;;;;;;;;;;;;;;;2204076;66;2000;-22
2023/05/20 02:45:23;;;;;;;;;;;;;;;;;;2220071;66;1856;-22
2023/05/20 02:47:54;;;;;;;;;;;;;;;;;;2219000;59;2024;-22
2023/05/20 02:50:24;;;;;;;;;;;;;;;;;;2219651;58;1288;-22
2023/05/20 02:52:54;;;;;;;;;;;;;;;;;;2219759;58;1503;-22
2023/05/20 02:55:25;;;;;;;;;;;;;;;;;;2220872;66;1864;-22
2023/05/20 02:57:55;;;;;;;;;;;;;;;;;;2203906;59;2093;-24
2023/05/20 03:00:27;;;;;;;;;;;;;;;;;;2221681;58;1962;-25
2023/05/20 03:03:01;;;;;;;;;;;;;;;;;;2220288;58;1983;-22
2023/05/20 03:05:32;;;;;;;;;;;;;;;;;;2220514;66;1673;-22
2023/05/20 03:08:05;;;;;;;;;;;;;;;;;;2219785;66;1225;-22
2023/05/20 03:10:41;;;;;;;;;;;;;;;;;;2204075;66;1508;-22
2023/05/20 03:13:14;;;;;;;;;;;;;;;;;;2219645;66;1329;-22
2023/05/20 03:15:44;;;;;;;;;;;;;;;;;;2204398;59;1779;-22
2023/05/20 03:18:14;;;;;;;;;;;;;;;;;;2220494;66;1541;-22
2023/05/20 03:20:45;;;;;;;;;;;;;;;;;;2220906;66;1531;-23
2023/05/20 03:23:15;;;;;;;;;;;;;;;;;;2219330;66;1927;-22
2023/05/20 03:25:46;;;;;;;;;;;;;;;;;;2220681;66;1254;-23
2023/05/20 03:28:16;;;;;;;;;;;;;;;;;;2204189;66;1380;-23
2023/05/20 03:30:46;;;;;;;;;;;;;;;;;;2220741;66;1286;-22
2023/05/20 03:33:17;;;;;;;;;;;;;;;;;;2204526;66;1412;-22
2023/05/20 03:35:47;;;;;;;;;;;;;;;;;;2220872;58;1711;-23
2023/05/20 03:38:17;;;;;;;;;;;;;;;;;;2221420;58;1286;-22
2023/05/20 03:40:47;;;;;;;;;;;;;;;;;;2219965;66;1102;-22
2023/05/20 03:43:17;;;;;;;;;;;;;;;;;;2204173;66;2000;-23
2023/05/20 03:45:48;;;;;;;;;;;;;;;;;;2221053;66;1474;-24
2023/05/20 03:48:19;;;;;;;;;;;;;;;;;;2201137;59;2204;-24
2023/05/20 03:50:49;;;;;;;;;;;;;;;;;;2220743;58;1394;-24
2023/05/20 03:53:20;;;;;;;;;;;;;;;;;;2220537;66;1338;-28
2023/05/20 03:55:50;;;;;;;;;;;;;;;;;;2219798;58;1243;-24
2023/05/20 03:58:21;;;;;;;;;;;;;;;;;;2219802;58;2149;-24
2023/05/20 04:00:51;;;;;;;;;;;;;;;;;;2203460;59;1239;-24
2023/05/20 04:03:21;;;;;;;;;;;;;;;;;;2202289;59;1957;-24
2023/05/20 04:05:52;;;;;;;;;;;;;;;;;;2220383;66;1522;-24
2023/05/20 04:08:24;;;;;;;;;;;;;;;;;;2201698;66;1281;-24
2023/05/20 04:11:01;;;;;;;;;;;;;;;;;;2220028;66;2147;-24
2023/05/20 04:13:31;;;;;;;;;;;;;;;;;;2219518;59;1096;-24
2023/05/20 04:16:04;;;;;;;;;;;;;;;;;;2218831;66;1556;-24
2023/05/20 04:18:40;;;;;;;;;;;;;;;;;;2220219;66;1206;-24
2023/05/20 04:21:10;;;;;;;;;;;;;;;;;;2220239;66;1136;-24
2023/05/20 04:23:44;;;;;;;;;;;;;;;;;;2220375;66;1947;-25
2023/05/20 04:26:14;;;;;;;;;;;;;;;;;;2219241;66;1690;-22
2023/05/20 04:28:47;;;;;;;;;;;;;;;;;;2220828;66;1753;-22
2023/05/20 04:31:17;;;;;;;;;;;;;;;;;;2220791;66;1282;-22
2023/05/20 04:33:47;;;;;;;;;;;;;;;;;;2220473;66;2100;-22
2023/05/20 04:36:18;;;;;;;;;;;;;;;;;;2219783;58;1888;-24
2023/05/20 04:38:48;;;;;;;;;;;;;;;;;;2219957;58;1448;-24
2023/05/20 04:41:18;;;;;;;;;;;;;;;;;;2219514;66;1817;-24
2023/05/20 04:43:49;;;;;;;;;;;;;;;;;;2219776;66;1945;-22
2023/05/20 04:46:23;;;;;;;;;;;;;;;;;;2220225;58;2080;-22
2023/05/20 04:48:53;;;;;;;;;;;;;;;;;;2219638;66;1678;-22
2023/05/20 04:51:23;;;;;;;;;;;;;;;;;;2220157;58;1528;-22
2023/05/20 04:53:54;;;;;;;;;;;;;;;;;;2220507;58;1258;-22
2023/05/20 04:56:24;;;;;;;;;;;;;;;;;;2220125;66;1988;-22
2023/05/20 04:58:55;;;;;;;;;;;;;;;;;;2220442;58;2272;-22
2023/05/20 05:01:25;;;;;;;;;;;;;;;;;;2219847;58;1177;-22
2023/05/20 05:03:55;;;;;;;;;;;;;;;;;;2204703;59;1932;-22
2023/05/20 05:06:25;;;;;;;;;;;;;;;;;;2220996;66;1103;-22
2023/05/20 05:08:56;;;;;;;;;;;;;;;;;;2220554;66;1355;-22
2023/05/20 05:11:26;;;;;;;;;;;;;;;;;;2204027;66;1280;-22
2023/05/20 05:13:56;;;;;;;;;;;;;;;;;;2220530;58;1192;-22
2023/05/20 05:16:26;;;;;;;;;;;;;;;;;;2221159;66;1149;-23
2023/05/20 05:18:59;;;;;;;;;;;;;;;;;;2220657;66;1269;-22
2023/05/20 05:21:30;;;;;;;;;;;;;;;;;;2204066;59;1958;-22
2023/05/20 05:24:00;;;;;;;;;;;;;;;;;;2219321;58;2273;-23
2023/05/20 05:26:30;;;;;;;;;;;;;;;;;;2220736;58;2057;-23
2023/05/20 05:29:00;;;;;;;;;;;;;;;;;;2220050;59;2269;-23
2023/05/20 05:31:34;;;;;;;;;;;;;;;;;;2219456;58;2213;-23
2023/05/20 05:34:04;;;;;;;;;;;;;;;;;;2220747;66;2127;-23
2023/05/20 05:36:34;;;;;;;;;;;;;;;;;;2204762;59;1782;-23
2023/05/20 05:39:05;;;;;;;;;;;;;;;;;;2220057;58;2483;-23
2023/05/20 05:41:38;;;;;;;;;;;;;;;;;;2221152;66;2018;-23
2023/05/20 05:44:08;;;;;;;;;;;;;;;;;;2219563;66;1992;-23
2023/05/20 05:46:38;;;;;;;;;;;;;;;;;;2220527;58;1845;-23
2023/05/20 05:49:08;;;;;;;;;;;;;;;;;;2220361;66;1239;-23
2023/05/20 05:51:38;;;;;;;;;;;;;;;;;;2220538;58;1691;-23
2023/05/20 05:54:09;;;;;;;;;;;;;;;;;;2217843;58;2135;-23
2023/05/20 05:56:39;;;;;;;;;;;;;;;;;;2201789;58;3166;-23
2023/05/20 05:59:09;;;;;;;;;;;;;;;;;;2219590;58;2191;-23
2023/05/20 06:01:39;;;;;;;;;;;;;;;;;;2219680;66;2090;-23
2023/05/20 06:04:10;;;;;;;;;;;;;;;;;;2218529;66;1924;-23
2023/05/20 06:06:40;;;;;;;;;;;;;;;;;;2219908;66;1448;-23
2023/05/20 06:09:10;;;;;;;;;;;;;;;;;;2219254;66;1293;-23
2023/05/20 06:11:44;;;;;;;;;;;;;;;;;;2220544;58;1325;-23
2023/05/20 06:14:14;;;;;;;;;;;;;;;;;;2218906;58;2521;-23
2023/05/20 06:16:44;;;;;;;;;;;;;;;;;;2220951;66;1619;-24
2023/05/20 06:19:17;;;;;;;;;;;;;;;;;;2219566;66;1817;-23
2023/05/20 06:21:48;;;;;;;;;;;;;;;;;;2219755;66;1280;-23
2023/05/20 06:24:18;;;;;;;;;;;;;;;;;;2216039;66;2361;-24
2023/05/20 06:26:49;;;;;;;;;;;;;;;;;;2219624;66;1634;-23
2023/05/20 06:29:19;;;;;;;;;;;;;;;;;;2219773;66;1170;-23
2023/05/20 06:31:49;;;;;;;;;;;;;;;;;;2203880;66;1184;-23
2023/05/20 06:34:20;;;;;;;;;;;;;;;;;;2218933;58;2166;-23
2023/05/20 06:36:50;;;;;;;;;;;;;;;;;;2220747;58;1324;-23
2023/05/20 06:39:20;;;;;;;;;;;;;;;;;;2219605;58;1440;-23
2023/05/20 06:41:51;;;;;;;;;;;;;;;;;;2220328;66;1161;-23
2023/05/20 06:44:21;;;;;;;;;;;;;;;;;;2218805;66;1929;-23
2023/05/20 06:46:51;;;;;;;;;;;;;;;;;;2203457;59;2226;-24
2023/05/20 06:49:24;;;;;;;;;;;;;;;;;;2203781;58;1828;-23
2023/05/20 06:51:55;;;;;;;;;;;;;;;;;;2218683;66;1789;-23
2023/05/20 06:54:25;;;;;;;;;;;;;;;;;;2218348;66;2409;-23
2023/05/20 06:56:55;;;;;;;;;;;;;;;;;;2205161;66;1161;-23
2023/05/20 06:59:25;;;;;;;;;;;;;;;;;;2204649;59;2225;-23
2023/05/20 07:01:55;;;;;;;;;;;;;;;;;;2204314;59;1130;-23
2023/05/20 07:04:26;;;;;;;;;;;;;;;;;;2219162;66;2419;-23
2023/05/20 07:06:56;;;;;;;;;;;;;;;;;;2221414;66;1443;-23
2023/05/20 07:09:26;;;;;;;;;;;;;;;;;;2220307;66;1270;-23
2023/05/20 07:11:57;;;;;;;;;;;;;;;;;;2219297;66;1188;-23
2023/05/20 07:14:27;;;;;;;;;;;;;;;;;;2219289;58;1758;-23
2023/05/20 07:16:57;;;;;;;;;;;;;;;;;;2220301;66;1370;-23
2023/05/20 07:19:27;;;;;;;;;;;;;;;;;;2219876;66;1698;-23
2023/05/20 07:21:58;;;;;;;;;;;;;;;;;;2219391;66;2033;-23
2023/05/20 07:24:28;;;;;;;;;;;;;;;;;;2218007;58;2552;-23
2023/05/20 07:26:58;;;;;;;;;;;;;;;;;;2219899;66;1113;-23
2023/05/20 07:29:28;;;;;;;;;;;;;;;;;;2219451;59;2147;-23
2023/05/20 07:31:59;;;;;;;;;;;;;;;;;;2218864;66;3055;-24
2023/05/20 07:34:29;;;;;;;;;;;;;;;;;;2218404;66;2624;-24
2023/05/20 07:37:00;;;;;;;;;;;;;;;;;;2218935;58;1669;-24
2023/05/20 07:39:30;;;;;;;;;;;;;;;;;;2220655;58;1966;-24
2023/05/20 07:42:00;;;;;;;;;;;;;;;;;;2219686;66;1140;-23
2023/05/20 07:44:30;;;;;;;;;;;;;;;;;;2219449;66;2578;-24
2023/05/20 07:47:01;;;;;;;;;;;;;;;;;;2203608;59;2154;-23
2023/05/20 07:49:31;;;;;;;;;;;;;;;;;;2202954;58;1926;-24
2023/05/20 07:52:02;;;;;;;;;;;;;;;;;;2219838;66;1932;-24
2023/05/20 07:54:33;;;;;;;;;;;;;;;;;;2218345;58;2571;-24
2023/05/20 07:57:03;;;;;;;;;;;;;;;;;;2219711;66;1117;-24
2023/05/20 07:59:34;;;;;;;;;;;;;;;;;;2218989;58;2259;-24
2023/05/20 08:02:04;;;;;;;;;;;;;;;;;;2216913;58;2090;-24
2023/05/20 08:04:34;;;;;;;;;;;;;;;;;;2219954;66;2459;-24
2023/05/20 08:07:05;;;;;;;;;;;;;;;;;;2219866;66;1671;-24
2023/05/20 08:09:35;;;;;;;;;;;;;;;;;;2218262;66;1533;-24
2023/05/20 08:12:05;;;;;;;;;;;;;;;;;;2220431;66;1811;-24
2023/05/20 08:14:36;;;;;;;;;;;;;;;;;;2203034;59;2425;-24
2023/05/20 08:17:06;;;;;;;;;;;;;;;;;;2219501;58;2055;-24
2023/05/20 08:19:36;;;;;;;;;;;;;;;;;;2219660;66;1855;-24
2023/05/20 08:22:07;;;;;;;;;;;;;;;;;;2219785;66;1617;-24
2023/05/20 08:24:37;;;;;;;;;;;;;;;;;;2217687;66;2523;-24
2023/05/20 08:27:07;;;;;;;;;;;;;;;;;;2218711;58;2018;-24
2023/05/20 08:29:38;;;;;;;;;;;;;;;;;;2220479;66;1606;-24
2023/05/20 08:32:08;;;;;;;;;;;;;;;;;;2219503;66;1193;-24
2023/05/20 08:34:38;;;;;;;;;;;;;;;;;;2218957;66;1807;-24
2023/05/20 08:37:09;;;;;;;;;;;;;;;;;;2220428;58;2171;-24
2023/05/20 08:39:39;;;;;;;;;;;;;;;;;;2218724;58;2529;-24
2023/05/20 08:42:12;;;;;;;;;;;;;;;;;;2219437;58;2348;-24
2023/05/20 08:44:44;;;;;;;;;;;;;;;;;;2215539;58;2463;-24
2023/05/20 08:47:15;;;;;;;;;;;;;;;;;;2219341;58;2206;-24
2023/05/20 08:49:45;;;;;;;;;;;;;;;;;;2220626;58;1535;-24
2023/05/20 08:52:16;;;;;;;;;;;;;;;;;;2204066;59;2060;-24
2023/05/20 08:54:48;;;;;;;;;;;;;;;;;;2201384;59;2811;-24
2023/05/20 08:57:20;;;;;;;;;;;;;;;;;;2220239;58;3284;-24
2023/05/20 08:59:50;;;;;;;;;;;;;;;;;;2219442;58;2257;-24
2023/05/20 09:02:22;;;;;;;;;;;;;;;;;;2220265;58;2436;-24
2023/05/20 09:04:52;;;;;;;;;;;;;;;;;;2218943;66;2551;-24
2023/05/20 09:07:26;;;;;;;;;;;;;;;;;;2219806;66;2660;-24
2023/05/20 09:09:57;;;;;;;;;;;;;;;;;;2220753;66;2701;-24
2023/05/20 09:12:27;;;;;;;;;;;;;;;;;;2220502;66;2758;-24
2023/05/20 09:14:57;;;;;;;;;;;;;;;;;;2219241;58;3138;-24
2023/05/20 09:17:27;;;;;;;;;;;;;;;;;;2220177;66;2722;-24
2023/05/20 09:19:58;;;;;;;;;;;;;;;;;;2204669;66;2526;-24
2023/05/20 09:22:29;;;;;;;;;;;;;;;;;;2220981;66;2688;-24
2023/05/20 09:24:59;;;;;;;;;;;;;;;;;;2218048;66;2671;-24
2023/05/20 09:27:29;;;;;;;;;;;;;;;;;;2204747;66;2472;-24
2023/05/20 09:30:00;;;;;;;;;;;;;;;;;;2221065;66;3075;-24
2023/05/20 09:32:30;;;;;;;;;;;;;;;;;;2220576;66;3126;-24
2023/05/20 09:35:01;;;;;;;;;;;;;;;;;;2219719;66;2679;-24
2023/05/20 09:37:33;;;;;;;;;;;;;;;;;;2220241;58;3213;-24
2023/05/20 09:40:04;;;;;;;;;;;;;;;;;;2204641;66;2910;-24
2023/05/20 09:42:53;;;;;;;;;;;;;;;;;;2221170;66;2021;-24
2023/05/20 09:45:23;;;;;;;;;;;;;;;;;;2219612;66;2540;-24
2023/05/20 09:47:55;;;;;;;;;;;;;;;;;;2219496;58;2901;-24
2023/05/20 09:50:26;;;;;;;;;;;;;;;;;;2219793;58;2486;-24
2023/05/20 09:53:00;;;;;;;;;;;;;;;;;;2220459;58;2791;-24
2023/05/20 09:55:31;;;;;;;;;;;;;;;;;;2217975;58;2942;-24
2023/05/20 09:58:02;;;;;;;;;;;;;;;;;;2201942;59;2589;-24
2023/05/20 10:00:33;;;;;;;;;;;;;;;;;;2220843;58;2656;-24
2023/05/20 10:03:09;;;;;;;;;;;;;;;;;;2220454;59;2857;-24
2023/05/20 10:05:43;;;;;;;;;;;;;;;;;;2219310;58;2553;-24
2023/05/20 10:08:19;;;;;;;;;;;;;;;;;;2204395;66;3015;-24
2023/05/20 10:10:53;;;;;;;;;;;;;;;;;;2220000;59;2619;-24
2023/05/20 10:13:42;;;;;;;;;;;;;;;;;;2203841;66;2210;-24
2023/05/20 10:16:33;;;;;;;;;;;;;;;;;;2200643;66;1790;-24
2023/05/20 10:19:15;;;;;;;;;;;;;;;;;;2218778;66;1748;-24
2023/05/20 10:21:55;;;;;;;;;;;;;;;;;;2204068;66;2618;-24
2023/05/20 10:24:32;;;;;;;;;;;;;;;;;;2219641;66;2524;-23
2023/05/20 10:27:04;;;;;;;;;;;;;;;;;;2220143;59;4073;-33
2023/05/20 10:29:44;;;;;;;;;;;;;;;;;;2219908;59;3134;-23
2023/05/20 10:32:28;;;;;;;;;;;;;;;;;;2203940;66;2817;-24
2023/05/20 10:35:00;;;;;;;;;;;;;;;;;;2204260;58;2816;-23
2023/05/20 10:37:40;;;;;;;;;;;;;;;;;;2221576;58;2977;-24
2023/05/20 10:40:12;;;;;;;;;;;;;;;;;;2219700;66;2282;-24
2023/05/20 10:42:42;;;;;;;;;;;;;;;;;;2220292;66;2358;-24
2023/05/20 10:45:23;;;;;;;;;;;;;;;;;;2218892;58;2848;-24
2023/05/20 10:47:55;;;;;;;;;;;;;;;;;;2219441;58;2227;-24
2023/05/20 10:50:27;;;;;;;;;;;;;;;;;;2220197;58;2658;-24
2023/05/20 10:53:10;;;;;;;;;;;;;;;;;;2217121;58;2816;-24
2023/05/20 10:55:47;;;;;;;;;;;;;;;;;;2215952;58;3039;-24
2023/05/20 10:58:18;;;;;;;;;;;;;;;;;;2218683;58;2890;-24
2023/05/20 11:00:51;;;;;;;;;;;;;;;;;;2203459;59;2177;-24
2023/05/20 11:03:21;;;;;;;;;;;;;;;;;;2218028;58;2542;-23
2023/05/20 11:05:52;;;;;;;;;;;;;;;;;;2219361;66;1893;-23
2023/05/20 11:08:26;;;;;;;;;;;;;;;;;;2219505;66;1743;-23
2023/05/20 11:10:56;;;;;;;;;;;;;;;;;;2219974;66;2433;-23
2023/05/20 11:13:30;;;;;;;;;;;;;;;;;;2219760;58;2141;-24
2023/05/20 11:16:00;;;;;;;;;;;;;;;;;;2218640;58;3033;-23
2023/05/20 11:18:31;;;;;;;;;;;;;;;;;;2203804;59;1942;-24
2023/05/20 11:21:01;;;;;;;;;;;;;;;;;;2218768;58;3046;-23
2023/05/20 11:23:36;;;;;;;;;;;;;;;;;;2220033;59;2670;-23
2023/05/20 11:26:06;;;;;;;;;;;;;;;;;;2216128;58;2605;-23
2023/05/20 11:28:37;;;;;;;;;;;;;;;;;;2220010;66;2971;-23
2023/05/20 11:31:07;;;;;;;;;;;;;;;;;;2218524;58;3089;-23
2023/05/20 11:33:40;;;;;;;;;;;;;;;;;;2218579;66;2307;-24
2023/05/20 11:36:12;;;;;;;;;;;;;;;;;;2219051;58;2373;-24
2023/05/20 11:38:44;;;;;;;;;;;;;;;;;;2204163;59;2284;-24
2023/05/20 11:41:15;;;;;;;;;;;;;;;;;;2218128;66;2600;-23
2023/05/20 11:43:45;;;;;;;;;;;;;;;;;;2200201;59;2452;-23
2023/05/20 11:46:15;;;;;;;;;;;;;;;;;;2218111;59;2506;-23
2023/05/20 11:48:52;;;;;;;;;;;;;;;;;;2218848;58;2577;-23
2023/05/20 11:51:24;;;;;;;;;;;;;;;;;;2219527;58;2726;-23
2023/05/20 11:54:00;;;;;;;;;;;;;;;;;;2219633;58;3908;-23
2023/05/20 11:56:40;;;;;;;;;;;;;;;;;;2218308;66;2685;-23
2023/05/20 11:59:10;;;;;;;;;;;;;;;;;;2218352;58;3187;-23
2023/05/20 12:01:44;;;;;;;;;;;;;;;;;;2220711;58;2974;-23
2023/05/20 12:04:15;;;;;;;;;;;;;;;;;;2219900;66;2827;-24
2023/05/20 12:06:45;;;;;;;;;;;;;;;;;;2218954;58;2770;-24
2023/05/20 12:09:15;;;;;;;;;;;;;;;;;;2219651;58;2779;-24
2023/05/20 12:11:46;;;;;;;;;;;;;;;;;;2219253;58;2827;-24
2023/05/20 12:14:16;;;;;;;;;;;;;;;;;;2204547;66;2629;-24
2023/05/20 12:16:46;;;;;;;;;;;;;;;;;;2218617;59;2822;-24
2023/05/20 12:19:16;;;;;;;;;;;;;;;;;;2219804;66;2233;-24
2023/05/20 12:21:46;;;;;;;;;;;;;;;;;;2219916;58;2276;-24
2023/05/20 12:24:17;;;;;;;;;;;;;;;;;;2218925;58;2218;-24
2023/05/20 12:26:47;;;;;;;;;;;;;;;;;;2219816;66;2639;-23
2023/05/20 12:29:17;;;;;;;;;;;;;;;;;;2220462;66;2618;-23
2023/05/20 12:31:47;;;;;;;;;;;;;;;;;;2220394;66;2692;-23
2023/05/20 12:34:17;;;;;;;;;;;;;;;;;;2204230;59;2021;-23
2023/05/20 12:36:48;;;;;;;;;;;;;;;;;;2203596;59;2793;-23
2023/05/20 12:39:18;;;;;;;;;;;;;;;;;;2220451;58;2555;-23
2023/05/20 12:41:48;;;;;;;;;;;;;;;;;;2219281;59;2478;-23
2023/05/20 12:44:18;;;;;;;;;;;;;;;;;;2204244;59;2274;-23
2023/05/20 12:46:49;;;;;;;;;;;;;;;;;;2218629;58;2750;-24
2023/05/20 12:49:22;;;;;;;;;;;;;;;;;;2204707;58;3021;-23
2023/05/20 12:51:52;;;;;;;;;;;;;;;;;;2220461;58;3299;-23
2023/05/20 12:54:27;;;;;;;;;;;;;;;;;;2219967;58;3046;-23
2023/05/20 12:56:57;;;;;;;;;;;;;;;;;;2218905;58;2981;-24
2023/05/20 12:59:27;;;;;;;;;;;;;;;;;;2219017;58;2886;-24
2023/05/20 13:01:57;;;;;;;;;;;;;;;;;;2220104;58;3081;-24
2023/05/20 13:04:28;;;;;;;;;;;;;;;;;;2221012;66;2653;-24
2023/05/20 13:06:58;;;;;;;;;;;;;;;;;;2203207;66;2983;-24
2023/05/20 13:09:28;;;;;;;;;;;;;;;;;;2220511;66;2853;-23
2023/05/20 13:11:59;;;;;;;;;;;;;;;;;;2204214;60;2214;-23
2023/05/20 13:14:30;;;;;;;;;;;;;;;;;;2203113;59;2688;-24
2023/05/20 13:17:01;;;;;;;;;;;;;;;;;;2220062;66;3137;-23
2023/05/20 13:19:31;;;;;;;;;;;;;;;;;;2220538;58;2868;-23
2023/05/20 13:22:01;;;;;;;;;;;;;;;;;;2220595;66;2515;-23
2023/05/20 13:24:32;;;;;;;;;;;;;;;;;;2220368;59;1938;-24
2023/05/20 13:27:03;;;;;;;;;;;;;;;;;;2219840;59;3016;-24
2023/05/20 13:29:33;;;;;;;;;;;;;;;;;;2219588;58;2817;-23
2023/05/20 13:32:04;;;;;;;;;;;;;;;;;;2220260;66;3043;-24
2023/05/20 13:34:34;;;;;;;;;;;;;;;;;;2219777;58;2154;-24
2023/05/20 13:37:04;;;;;;;;;;;;;;;;;;2218981;58;2908;-24
2023/05/20 13:39:35;;;;;;;;;;;;;;;;;;2220478;58;2658;-24
2023/05/20 13:42:05;;;;;;;;;;;;;;;;;;2220579;66;3141;-24
2023/05/20 13:44:35;;;;;;;;;;;;;;;;;;2218906;66;1995;-24
2023/05/20 13:47:05;;;;;;;;;;;;;;;;;;2219270;58;2152;-24
2023/05/20 13:49:36;;;;;;;;;;;;;;;;;;2203079;58;2517;-24
2023/05/20 13:52:06;;;;;;;;;;;;;;;;;;2220094;58;2421;-24
2023/05/20 13:54:36;;;;;;;;;;;;;;;;;;2218604;66;2640;-24
2023/05/20 13:57:06;;;;;;;;;;;;;;;;;;2219503;66;3059;-24
2023/05/20 13:59:37;;;;;;;;;;;;;;;;;;2217784;58;2710;-24
2023/05/20 14:02:07;;;;;;;;;;;;;;;;;;2219300;58;3338;-23
2023/05/20 14:04:38;;;;;;;;;;;;;;;;;;2202133;59;2847;-24
2023/05/20 14:07:11;;;;;;;;;;;;;;;;;;2219286;58;2272;-23
2023/05/20 14:09:44;;;;;;;;;;;;;;;;;;2220421;66;2378;-24
2023/05/20 14:12:14;;;;;;;;;;;;;;;;;;2220755;59;2137;-24
2023/05/20 14:14:45;;;;;;;;;;;;;;;;;;2217664;58;2538;-24
2023/05/20 14:17:15;;;;;;;;;;;;;;;;;;2219691;58;3010;-24
2023/05/20 14:19:45;;;;;;;;;;;;;;;;;;2203397;59;2812;-24
2023/05/20 14:22:16;;;;;;;;;;;;;;;;;;2219291;66;3150;-24
2023/05/20 14:24:46;;;;;;;;;;;;;;;;;;2202727;58;3109;-23
2023/05/20 14:27:16;;;;;;;;;;;;;;;;;;2220643;66;2586;-24
2023/05/20 14:29:46;;;;;;;;;;;;;;;;;;2219872;66;2877;-24
2023/05/20 14:32:16;;;;;;;;;;;;;;;;;;2220401;66;2921;-24
2023/05/20 14:34:47;;;;;;;;;;;;;;;;;;2218388;66;2773;-24
2023/05/20 14:37:17;;;;;;;;;;;;;;;;;;2220321;58;1783;-24
2023/05/20 14:39:47;;;;;;;;;;;;;;;;;;2219762;58;2304;-24
2023/05/20 14:42:17;;;;;;;;;;;;;;;;;;2204453;66;1783;-24
2023/05/20 14:44:51;;;;;;;;;;;;;;;;;;2203326;66;3208;-24
2023/05/20 14:47:21;;;;;;;;;;;;;;;;;;2220697;66;2039;-23
2023/05/20 14:49:55;;;;;;;;;;;;;;;;;;2219228;58;3181;-24
2023/05/20 14:52:25;;;;;;;;;;;;;;;;;;2206128;59;1909;-24
2023/05/20 14:55:01;;;;;;;;;;;;;;;;;;2217586;58;2846;-18
2023/05/20 14:57:31;;;;;;;;;;;;;;;;;;2218133;59;2187;-18
2023/05/20 15:00:01;;;;;;;;;;;;;;;;;;2213557;59;2826;-18
2023/05/20 15:02:31;;;;;;;;;;;;;;;;;;2215019;59;2389;-18
2023/05/20 15:05:01;;;;;;;;;;;;;;;;;;2212074;59;2562;-18
2023/05/20 15:07:32;;;;;;;;;;;;;;;;;;2215234;66;1785;-18
2023/05/20 15:10:02;;;;;;;;;;;;;;;;;;2215122;59;2669;-18
2023/05/20 15:12:32;;;;;;;;;;;;;;;;;;2214529;66;2404;-18
2023/05/20 15:15:03;;;;;;;;;;;;;;;;;;2213726;66;2140;-18
2023/05/20 15:17:33;;;;;;;;;;;;;;;;;;2214050;66;2610;-18
2023/05/20 15:20:04;;;;;;;;;;;;;;;;;;2214074;66;2259;-18
2023/05/20 15:22:34;;;;;;;;;;;;;;;;;;2214262;66;2538;-18
2023/05/20 15:25:04;;;;;;;;;;;;;;;;;;2212517;66;2834;-18
2023/05/20 15:27:34;;;;;;;;;;;;;;;;;;2214713;66;1925;-18
2023/05/20 15:30:05;;;;;;;;;;;;;;;;;;2214898;66;2697;-19
2023/05/20 15:32:35;;;;;;;;;;;;;;;;;;2215490;66;3331;-17
2023/05/20 15:35:06;;;;;;;;;;;;;;;;;;2213554;59;3047;-19
2023/05/20 15:37:36;;;;;;;;;;;;;;;;;;2215765;59;3010;-19
2023/05/20 15:40:07;;;;;;;;;;;;;;;;;;2214434;59;2044;-19
2023/05/20 15:42:37;;;;;;;;;;;;;;;;;;2215563;66;2548;-18
2023/05/20 15:45:08;;;;;;;;;;;;;;;;;;2213541;66;2358;-18
2023/05/20 15:47:38;;;;;;;;;;;;;;;;;;2215244;66;2208;-19
2023/05/20 15:50:10;;;;;;;;;;;;;;;;;;2214690;59;2530;-19
2023/05/20 15:52:40;;;;;;;;;;;;;;;;;;2215234;59;2462;-19
2023/05/20 15:55:10;;;;;;;;;;;;;;;;;;2212945;66;3974;-19
2023/05/20 15:57:40;;;;;;;;;;;;;;;;;;2215129;59;2197;-18
2023/05/20 16:00:11;;;;;;;;;;;;;;;;;;2213848;59;2707;-18
2023/05/20 16:02:42;;;;;;;;;;;;;;;;;;2214366;59;2483;-18
2023/05/20 16:05:16;;;;;;;;;;;;;;;;;;2212202;66;2582;-19
2023/05/20 16:07:46;;;;;;;;;;;;;;;;;;2212294;66;2672;-18
2023/05/20 16:10:16;;;;;;;;;;;;;;;;;;2211616;67;2170;-18
2023/05/20 16:12:47;;;;;;;;;;;;;;;;;;2211891;59;2801;-19
2023/05/20 16:15:20;;;;;;;;;;;;;;;;;;2210193;66;2751;-18
2023/05/20 16:17:50;;;;;;;;;;;;;;;;;;2212188;67;2036;-18
2023/05/20 16:20:20;;;;;;;;;;;;;;;;;;2209467;59;2981;-18
2023/05/20 16:22:50;;;;;;;;;;;;;;;;;;2212868;66;2077;-18
2023/05/20 16:25:20;;;;;;;;;;;;;;;;;;2209726;60;3159;-18
2023/05/20 16:27:51;;;;;;;;;;;;;;;;;;2211342;59;2220;-19
2023/05/20 16:30:21;;;;;;;;;;;;;;;;;;2210913;59;2112;-19
2023/05/20 16:32:51;;;;;;;;;;;;;;;;;;2211522;66;2155;-19
2023/05/20 16:35:21;;;;;;;;;;;;;;;;;;2210563;59;3585;-19
2023/05/20 16:37:52;;;;;;;;;;;;;;;;;;2210599;59;2076;-19
2023/05/20 16:40:22;;;;;;;;;;;;;;;;;;2210837;66;2188;-18
2023/05/20 16:42:52;;;;;;;;;;;;;;;;;;2209107;59;3007;-18
2023/05/20 16:45:22;;;;;;;;;;;;;;;;;;2210006;59;2444;-19
2023/05/20 16:47:52;;;;;;;;;;;;;;;;;;2210318;59;2813;-18
2023/05/20 16:50:23;;;;;;;;;;;;;;;;;;2211303;59;2775;-18
2023/05/20 16:52:54;;;;;;;;;;;;;;;;;;2211668;59;2097;-19
2023/05/20 16:55:24;;;;;;;;;;;;;;;;;;2208753;59;2420;-18
2023/05/20 16:57:54;;;;;;;;;;;;;;;;;;2209523;59;3397;-19
2023/05/20 17:00:25;;;;;;;;;;;;;;;;;;2211519;59;1950;-18
2023/05/20 17:02:55;;;;;;;;;;;;;;;;;;2210441;59;2658;-19
2023/05/20 17:05:25;;;;;;;;;;;;;;;;;;2211225;59;2727;-18
2023/05/20 17:07:58;;;;;;;;;;;;;;;;;;2211586;59;2808;-19
2023/05/20 17:10:29;;;;;;;;;;;;;;;;;;2211848;59;2657;-18
2023/05/20 17:12:59;;;;;;;;;;;;;;;;;;2211301;67;2713;-18
2023/05/20 17:15:29;;;;;;;;;;;;;;;;;;2210903;59;2299;-19
2023/05/20 17:17:59;;;;;;;;;;;;;;;;;;2211134;59;2266;-18
2023/05/20 17:20:30;;;;;;;;;;;;;;;;;;2211524;66;2212;-18
2023/05/20 17:23:00;;;;;;;;;;;;;;;;;;2210863;59;2670;-19
2023/05/20 17:25:30;;;;;;;;;;;;;;;;;;2209352;59;2606;-18
2023/05/20 17:28:00;;;;;;;;;;;;;;;;;;2211463;66;2721;-19
2023/05/20 17:30:31;;;;;;;;;;;;;;;;;;2210809;59;2563;-19